sensor_id;sensor_type;location;lat;lon;timestamp;temperature;humidity
43043;DHT22;28667;50.758;6.096;2022-07-29T00:01:00;17.90;93.70
43043;DHT22;28667;50.758;6.096;2022-07-29T00:03:26;17.80;93.70
43043;DHT22;28667;50.758;6.096;2022-07-29T00:05:52;17.80;93.90
43043;DHT22;28667;50.758;6.096;2022-07-29T00:08:20;17.70;94.00
43043;DHT22;28667;50.758;6.096;2022-07-29T00:10:46;17.70;94.20
43043;DHT22;28667;50.758;6.096;2022-07-29T00:13:12;17.60;94.40
43043;DHT22;28667;50.758;6.096;2022-07-29T00:15:38;17.60;94.50
43043;DHT22;28667;50.758;6.096;2022-07-29T00:18:04;17.50;94.80
43043;DHT22;28667;50.758;6.096;2022-07-29T00:20:31;17.50;95.00
43043;DHT22;28667;50.758;6.096;2022-07-29T00:22:57;17.40;95.10
43043;DHT22;28667;50.758;6.096;2022-07-29T00:25:23;17.40;95.20
43043;DHT22;28667;50.758;6.096;2022-07-29T00:27:49;17.30;95.40
43043;DHT22;28667;50.758;6.096;2022-07-29T00:30:15;17.30;95.40
43043;DHT22;28667;50.758;6.096;2022-07-29T00:32:41;17.30;95.40
43043;DHT22;28667;50.758;6.096;2022-07-29T00:35:08;17.20;95.40
43043;DHT22;28667;50.758;6.096;2022-07-29T00:37:53;17.20;95.50
43043;DHT22;28667;50.758;6.096;2022-07-29T00:40:19;17.10;95.60
43043;DHT22;28667;50.758;6.096;2022-07-29T00:42:48;17.10;95.70
43043;DHT22;28667;50.758;6.096;2022-07-29T00:45:16;17.10;95.90
43043;DHT22;28667;50.758;6.096;2022-07-29T00:47:42;17.00;96.10
43043;DHT22;28667;50.758;6.096;2022-07-29T00:50:10;17.00;96.20
43043;DHT22;28667;50.758;6.096;2022-07-29T00:52:38;17.00;96.40
43043;DHT22;28667;50.758;6.096;2022-07-29T00:55:07;17.00;96.50
43043;DHT22;28667;50.758;6.096;2022-07-29T00:57:35;17.00;96.80
43043;DHT22;28667;50.758;6.096;2022-07-29T01:00:07;16.90;97.00
43043;DHT22;28667;50.758;6.096;2022-07-29T01:02:34;16.90;97.20
43043;DHT22;28667;50.758;6.096;2022-07-29T01:05:02;16.90;97.30
43043;DHT22;28667;50.758;6.096;2022-07-29T01:07:30;16.90;97.50
43043;DHT22;28667;50.758;6.096;2022-07-29T01:09:59;16.90;97.50
43043;DHT22;28667;50.758;6.096;2022-07-29T01:12:27;16.90;97.40
43043;DHT22;28667;50.758;6.096;2022-07-29T01:14:55;16.90;97.30
43043;DHT22;28667;50.758;6.096;2022-07-29T01:30:47;16.90;95.20
43043;DHT22;28667;50.758;6.096;2022-07-29T01:33:17;16.90;95.20
43043;DHT22;28667;50.758;6.096;2022-07-29T01:36:09;17.00;94.90
43043;DHT22;28667;50.758;6.096;2022-07-29T01:38:38;17.00;94.60
43043;DHT22;28667;50.758;6.096;2022-07-29T01:41:16;17.00;94.50
43043;DHT22;28667;50.758;6.096;2022-07-29T01:43:53;17.10;94.60
43043;DHT22;28667;50.758;6.096;2022-07-29T01:46:31;17.10;94.60
43043;DHT22;28667;50.758;6.096;2022-07-29T01:49:08;17.10;94.60
43043;DHT22;28667;50.758;6.096;2022-07-29T01:51:58;17.10;94.70
43043;DHT22;28667;50.758;6.096;2022-07-29T01:54:34;17.10;94.80
43043;DHT22;28667;50.758;6.096;2022-07-29T01:57:01;17.10;94.90
43043;DHT22;28667;50.758;6.096;2022-07-29T01:59:30;17.10;95.10
43043;DHT22;28667;50.758;6.096;2022-07-29T02:01:58;17.00;95.10
43043;DHT22;28667;50.758;6.096;2022-07-29T02:04:26;17.00;95.20
43043;DHT22;28667;50.758;6.096;2022-07-29T02:06:53;17.00;95.30
43043;DHT22;28667;50.758;6.096;2022-07-29T02:09:21;17.00;95.30
43043;DHT22;28667;50.758;6.096;2022-07-29T02:11:51;17.00;95.60
43043;DHT22;28667;50.758;6.096;2022-07-29T02:14:19;17.00;95.30
43043;DHT22;28667;50.758;6.096;2022-07-29T02:16:48;17.00;95.40
43043;DHT22;28667;50.758;6.096;2022-07-29T02:19:17;17.00;95.60
43043;DHT22;28667;50.758;6.096;2022-07-29T02:21:45;17.00;95.50
43043;DHT22;28667;50.758;6.096;2022-07-29T02:24:13;16.90;95.60
43043;DHT22;28667;50.758;6.096;2022-07-29T02:26:41;16.90;95.60
43043;DHT22;28667;50.758;6.096;2022-07-29T02:29:09;16.90;95.70
43043;DHT22;28667;50.758;6.096;2022-07-29T02:31:38;16.90;95.80
43043;DHT22;28667;50.758;6.096;2022-07-29T02:34:06;16.90;95.90
43043;DHT22;28667;50.758;6.096;2022-07-29T02:36:34;16.90;95.90
43043;DHT22;28667;50.758;6.096;2022-07-29T02:39:02;16.80;96.00
43043;DHT22;28667;50.758;6.096;2022-07-29T02:41:42;16.80;95.90
43043;DHT22;28667;50.758;6.096;2022-07-29T02:44:12;16.80;95.90
43043;DHT22;28667;50.758;6.096;2022-07-29T02:52:12;16.80;95.90
43043;DHT22;28667;50.758;6.096;2022-07-29T02:57:30;16.80;96.10
43043;DHT22;28667;50.758;6.096;2022-07-29T03:00:00;16.80;96.20
43043;DHT22;28667;50.758;6.096;2022-07-29T03:02:33;16.80;96.20
43043;DHT22;28667;50.758;6.096;2022-07-29T03:05:01;16.70;96.20
43043;DHT22;28667;50.758;6.096;2022-07-29T03:07:27;16.70;96.30
43043;DHT22;28667;50.758;6.096;2022-07-29T03:09:55;16.70;96.30
43043;DHT22;28667;50.758;6.096;2022-07-29T03:12:22;16.70;96.40
43043;DHT22;28667;50.758;6.096;2022-07-29T03:14:49;16.70;96.30
43043;DHT22;28667;50.758;6.096;2022-07-29T03:17:15;16.70;96.30
43043;DHT22;28667;50.758;6.096;2022-07-29T03:19:42;16.70;96.30
43043;DHT22;28667;50.758;6.096;2022-07-29T03:22:09;16.70;96.30
43043;DHT22;28667;50.758;6.096;2022-07-29T03:24:36;16.70;96.50
43043;DHT22;28667;50.758;6.096;2022-07-29T03:27:03;16.70;96.50
43043;DHT22;28667;50.758;6.096;2022-07-29T03:29:30;16.70;96.80
43043;DHT22;28667;50.758;6.096;2022-07-29T03:31:56;16.70;96.80
43043;DHT22;28667;50.758;6.096;2022-07-29T03:34:22;16.70;96.80
43043;DHT22;28667;50.758;6.096;2022-07-29T03:36:49;16.70;96.90
43043;DHT22;28667;50.758;6.096;2022-07-29T03:39:20;16.70;97.00
43043;DHT22;28667;50.758;6.096;2022-07-29T03:41:49;16.70;96.90
43043;DHT22;28667;50.758;6.096;2022-07-29T03:44:16;16.70;97.00
43043;DHT22;28667;50.758;6.096;2022-07-29T03:46:44;16.60;97.20
43043;DHT22;28667;50.758;6.096;2022-07-29T03:49:12;16.60;97.30
43043;DHT22;28667;50.758;6.096;2022-07-29T03:51:40;16.60;97.30
43043;DHT22;28667;50.758;6.096;2022-07-29T03:54:07;16.60;97.40
43043;DHT22;28667;50.758;6.096;2022-07-29T03:56:45;16.60;97.40
43043;DHT22;28667;50.758;6.096;2022-07-29T03:59:17;16.50;97.40
43043;DHT22;28667;50.758;6.096;2022-07-29T04:01:45;16.50;97.50
43043;DHT22;28667;50.758;6.096;2022-07-29T04:04:12;16.50;97.40
43043;DHT22;28667;50.758;6.096;2022-07-29T04:06:44;16.50;97.50
43043;DHT22;28667;50.758;6.096;2022-07-29T04:09:11;16.60;97.60
43043;DHT22;28667;50.758;6.096;2022-07-29T04:11:41;16.60;97.70
43043;DHT22;28667;50.758;6.096;2022-07-29T04:14:07;16.60;97.80
43043;DHT22;28667;50.758;6.096;2022-07-29T04:16:33;16.60;97.90
43043;DHT22;28667;50.758;6.096;2022-07-29T04:18:59;16.60;97.90
43043;DHT22;28667;50.758;6.096;2022-07-29T04:21:25;16.60;97.90
43043;DHT22;28667;50.758;6.096;2022-07-29T04:23:51;16.60;98.00
43043;DHT22;28667;50.758;6.096;2022-07-29T04:26:19;16.60;98.00
43043;DHT22;28667;50.758;6.096;2022-07-29T04:28:46;16.60;98.10
43043;DHT22;28667;50.758;6.096;2022-07-29T04:31:13;16.60;98.10
43043;DHT22;28667;50.758;6.096;2022-07-29T04:33:39;16.60;98.10
43043;DHT22;28667;50.758;6.096;2022-07-29T04:36:05;16.60;98.20
43043;DHT22;28667;50.758;6.096;2022-07-29T04:38:31;16.60;98.20
43043;DHT22;28667;50.758;6.096;2022-07-29T04:40:57;16.50;98.30
43043;DHT22;28667;50.758;6.096;2022-07-29T04:43:23;16.50;98.30
43043;DHT22;28667;50.758;6.096;2022-07-29T04:45:49;16.60;98.50
43043;DHT22;28667;50.758;6.096;2022-07-29T04:48:16;16.60;98.40
43043;DHT22;28667;50.758;6.096;2022-07-29T04:50:42;16.60;98.50
43043;DHT22;28667;50.758;6.096;2022-07-29T04:53:08;16.60;98.40
43043;DHT22;28667;50.758;6.096;2022-07-29T04:55:34;16.60;98.50
43043;DHT22;28667;50.758;6.096;2022-07-29T04:58:00;16.60;98.80
43043;DHT22;28667;50.758;6.096;2022-07-29T05:00:26;16.60;98.60
43043;DHT22;28667;50.758;6.096;2022-07-29T05:02:52;16.60;98.50
43043;DHT22;28667;50.758;6.096;2022-07-29T05:05:18;16.60;98.40
43043;DHT22;28667;50.758;6.096;2022-07-29T05:07:47;16.60;98.40
43043;DHT22;28667;50.758;6.096;2022-07-29T05:10:13;16.60;98.50
43043;DHT22;28667;50.758;6.096;2022-07-29T05:12:39;16.60;98.50
43043;DHT22;28667;50.758;6.096;2022-07-29T05:15:06;16.60;98.40
43043;DHT22;28667;50.758;6.096;2022-07-29T05:17:32;16.60;98.50
43043;DHT22;28667;50.758;6.096;2022-07-29T05:19:59;16.70;98.50
43043;DHT22;28667;50.758;6.096;2022-07-29T05:22:25;16.70;98.50
43043;DHT22;28667;50.758;6.096;2022-07-29T05:24:51;16.70;98.00
43043;DHT22;28667;50.758;6.096;2022-07-29T05:27:17;16.70;97.80
43043;DHT22;28667;50.758;6.096;2022-07-29T05:29:43;16.80;97.70
43043;DHT22;28667;50.758;6.096;2022-07-29T05:32:10;16.80;97.70
43043;DHT22;28667;50.758;6.096;2022-07-29T05:34:36;16.80;97.60
43043;DHT22;28667;50.758;6.096;2022-07-29T05:37:02;16.90;97.50
43043;DHT22;28667;50.758;6.096;2022-07-29T05:39:28;16.90;97.40
43043;DHT22;28667;50.758;6.096;2022-07-29T05:41:54;16.90;97.30
43043;DHT22;28667;50.758;6.096;2022-07-29T05:44:20;16.90;97.30
43043;DHT22;28667;50.758;6.096;2022-07-29T05:46:46;16.90;97.30
43043;DHT22;28667;50.758;6.096;2022-07-29T05:49:12;16.90;97.30
43043;DHT22;28667;50.758;6.096;2022-07-29T05:51:38;16.90;97.30
43043;DHT22;28667;50.758;6.096;2022-07-29T05:54:04;16.90;97.40
43043;DHT22;28667;50.758;6.096;2022-07-29T05:56:31;16.90;97.40
43043;DHT22;28667;50.758;6.096;2022-07-29T05:58:57;16.90;97.40
43043;DHT22;28667;50.758;6.096;2022-07-29T06:01:23;16.90;97.50
43043;DHT22;28667;50.758;6.096;2022-07-29T06:03:49;17.00;97.50
43043;DHT22;28667;50.758;6.096;2022-07-29T06:06:15;17.00;97.50
43043;DHT22;28667;50.758;6.096;2022-07-29T06:08:42;17.10;97.40
43043;DHT22;28667;50.758;6.096;2022-07-29T06:11:08;17.20;97.30
43043;DHT22;28667;50.758;6.096;2022-07-29T06:13:34;17.20;97.20
43043;DHT22;28667;50.758;6.096;2022-07-29T06:16:00;17.30;97.10
43043;DHT22;28667;50.758;6.096;2022-07-29T06:18:26;17.30;97.20
43043;DHT22;28667;50.758;6.096;2022-07-29T06:20:53;17.30;97.20
43043;DHT22;28667;50.758;6.096;2022-07-29T06:23:20;17.30;97.20
43043;DHT22;28667;50.758;6.096;2022-07-29T06:25:46;17.30;97.40
43043;DHT22;28667;50.758;6.096;2022-07-29T06:28:12;17.30;97.60
43043;DHT22;28667;50.758;6.096;2022-07-29T06:30:39;17.20;97.30
43043;DHT22;28667;50.758;6.096;2022-07-29T06:33:06;17.20;97.60
43043;DHT22;28667;50.758;6.096;2022-07-29T06:35:35;17.20;97.70
43043;DHT22;28667;50.758;6.096;2022-07-29T06:38:03;17.20;97.70
43043;DHT22;28667;50.758;6.096;2022-07-29T06:40:29;17.20;97.90
43043;DHT22;28667;50.758;6.096;2022-07-29T06:43:14;17.20;97.90
43043;DHT22;28667;50.758;6.096;2022-07-29T06:45:40;17.20;97.70
43043;DHT22;28667;50.758;6.096;2022-07-29T06:48:06;17.20;97.60
43043;DHT22;28667;50.758;6.096;2022-07-29T06:50:33;17.20;97.50
43043;DHT22;28667;50.758;6.096;2022-07-29T06:52:59;17.20;97.50
43043;DHT22;28667;50.758;6.096;2022-07-29T06:55:25;17.20;97.60
43043;DHT22;28667;50.758;6.096;2022-07-29T06:57:51;17.20;97.70
43043;DHT22;28667;50.758;6.096;2022-07-29T07:00:18;17.30;97.80
43043;DHT22;28667;50.758;6.096;2022-07-29T07:02:44;17.30;98.10
43043;DHT22;28667;50.758;6.096;2022-07-29T07:05:10;17.30;98.10
43043;DHT22;28667;50.758;6.096;2022-07-29T07:07:36;17.30;98.00
43043;DHT22;28667;50.758;6.096;2022-07-29T07:10:03;17.30;97.90
43043;DHT22;28667;50.758;6.096;2022-07-29T07:12:29;17.30;97.80
43043;DHT22;28667;50.758;6.096;2022-07-29T07:14:55;17.40;97.70
43043;DHT22;28667;50.758;6.096;2022-07-29T07:17:21;17.40;97.40
43043;DHT22;28667;50.758;6.096;2022-07-29T07:19:48;17.50;97.50
43043;DHT22;28667;50.758;6.096;2022-07-29T07:22:14;17.50;97.30
43043;DHT22;28667;50.758;6.096;2022-07-29T07:24:40;17.60;97.10
43043;DHT22;28667;50.758;6.096;2022-07-29T07:27:06;17.60;97.20
43043;DHT22;28667;50.758;6.096;2022-07-29T07:29:32;17.70;97.60
43043;DHT22;28667;50.758;6.096;2022-07-29T07:31:58;17.80;97.30
43043;DHT22;28667;50.758;6.096;2022-07-29T07:34:24;18.00;97.60
43043;DHT22;28667;50.758;6.096;2022-07-29T07:36:50;18.10;96.90
43043;DHT22;28667;50.758;6.096;2022-07-29T07:39:16;18.20;96.50
43043;DHT22;28667;50.758;6.096;2022-07-29T07:41:43;18.30;96.40
43043;DHT22;28667;50.758;6.096;2022-07-29T07:44:09;18.40;96.50
43043;DHT22;28667;50.758;6.096;2022-07-29T07:46:35;18.50;96.30
43043;DHT22;28667;50.758;6.096;2022-07-29T07:49:01;18.70;96.00
43043;DHT22;28667;50.758;6.096;2022-07-29T07:51:27;18.80;95.80
43043;DHT22;28667;50.758;6.096;2022-07-29T07:53:53;18.90;95.70
43043;DHT22;28667;50.758;6.096;2022-07-29T07:56:19;19.00;95.90
43043;DHT22;28667;50.758;6.096;2022-07-29T07:58:45;19.10;95.70
43043;DHT22;28667;50.758;6.096;2022-07-29T08:01:11;19.20;95.60
43043;DHT22;28667;50.758;6.096;2022-07-29T08:03:38;19.30;95.50
43043;DHT22;28667;50.758;6.096;2022-07-29T08:06:04;19.40;95.20
43043;DHT22;28667;50.758;6.096;2022-07-29T08:08:31;19.40;95.10
43043;DHT22;28667;50.758;6.096;2022-07-29T08:10:57;19.50;95.40
43043;DHT22;28667;50.758;6.096;2022-07-29T08:13:27;19.60;95.10
43043;DHT22;28667;50.758;6.096;2022-07-29T08:15:56;19.60;94.90
43043;DHT22;28667;50.758;6.096;2022-07-29T08:18:38;19.60;94.70
43043;DHT22;28667;50.758;6.096;2022-07-29T08:21:05;19.60;93.80
43043;DHT22;28667;50.758;6.096;2022-07-29T08:23:31;19.50;93.80
43043;DHT22;28667;50.758;6.096;2022-07-29T08:26:08;19.50;93.80
43043;DHT22;28667;50.758;6.096;2022-07-29T08:28:40;19.40;94.00
43043;DHT22;28667;50.758;6.096;2022-07-29T08:31:07;19.30;94.00
43043;DHT22;28667;50.758;6.096;2022-07-29T08:33:33;19.30;93.90
43043;DHT22;28667;50.758;6.096;2022-07-29T08:35:59;19.20;94.20
43043;DHT22;28667;50.758;6.096;2022-07-29T08:38:25;19.20;94.30
43043;DHT22;28667;50.758;6.096;2022-07-29T08:40:54;19.30;94.60
43043;DHT22;28667;50.758;6.096;2022-07-29T08:43:20;19.30;94.60
43043;DHT22;28667;50.758;6.096;2022-07-29T08:45:48;19.40;94.50
43043;DHT22;28667;50.758;6.096;2022-07-29T08:48:20;19.50;94.60
43043;DHT22;28667;50.758;6.096;2022-07-29T08:50:48;19.60;94.60
43043;DHT22;28667;50.758;6.096;2022-07-29T08:53:16;19.70;94.40
43043;DHT22;28667;50.758;6.096;2022-07-29T08:55:47;19.70;94.20
43043;DHT22;28667;50.758;6.096;2022-07-29T08:58:15;19.70;94.30
43043;DHT22;28667;50.758;6.096;2022-07-29T09:00:43;19.80;94.20
43043;DHT22;28667;50.758;6.096;2022-07-29T09:03:12;19.80;94.00
43043;DHT22;28667;50.758;6.096;2022-07-29T09:05:45;19.90;94.00
43043;DHT22;28667;50.758;6.096;2022-07-29T09:08:14;19.90;94.00
43043;DHT22;28667;50.758;6.096;2022-07-29T09:10:40;20.00;93.90
43043;DHT22;28667;50.758;6.096;2022-07-29T09:13:06;20.00;94.00
43043;DHT22;28667;50.758;6.096;2022-07-29T09:15:32;20.00;94.20
43043;DHT22;28667;50.758;6.096;2022-07-29T09:17:59;20.00;94.40
43043;DHT22;28667;50.758;6.096;2022-07-29T09:20:26;20.00;94.00
43043;DHT22;28667;50.758;6.096;2022-07-29T09:23:13;20.00;94.20
43043;DHT22;28667;50.758;6.096;2022-07-29T09:25:40;20.00;94.30
43043;DHT22;28667;50.758;6.096;2022-07-29T09:28:13;20.10;94.00
43043;DHT22;28667;50.758;6.096;2022-07-29T09:30:53;20.10;93.70
43043;DHT22;28667;50.758;6.096;2022-07-29T09:33:21;20.30;93.50
43043;DHT22;28667;50.758;6.096;2022-07-29T09:36:08;20.40;93.40
43043;DHT22;28667;50.758;6.096;2022-07-29T09:38:36;20.50;93.10
43043;DHT22;28667;50.758;6.096;2022-07-29T09:41:05;20.60;93.10
43043;DHT22;28667;50.758;6.096;2022-07-29T09:43:34;20.70;92.80
43043;DHT22;28667;50.758;6.096;2022-07-29T09:46:11;20.80;92.50
43043;DHT22;28667;50.758;6.096;2022-07-29T09:48:37;20.90;92.40
43043;DHT22;28667;50.758;6.096;2022-07-29T09:51:03;21.00;92.00
43043;DHT22;28667;50.758;6.096;2022-07-29T09:53:36;21.10;91.30
43043;DHT22;28667;50.758;6.096;2022-07-29T09:56:03;21.30;90.70
43043;DHT22;28667;50.758;6.096;2022-07-29T09:58:30;21.40;90.90
43043;DHT22;28667;50.758;6.096;2022-07-29T10:00:59;21.60;90.50
43043;DHT22;28667;50.758;6.096;2022-07-29T10:03:25;21.70;90.40
43043;DHT22;28667;50.758;6.096;2022-07-29T10:06:09;21.90;90.40
43043;DHT22;28667;50.758;6.096;2022-07-29T10:08:36;22.10;90.00
43043;DHT22;28667;50.758;6.096;2022-07-29T10:11:11;22.30;89.60
43043;DHT22;28667;50.758;6.096;2022-07-29T10:13:38;22.30;90.10
43043;DHT22;28667;50.758;6.096;2022-07-29T10:16:05;22.30;90.00
43043;DHT22;28667;50.758;6.096;2022-07-29T10:18:32;22.30;89.50
43043;DHT22;28667;50.758;6.096;2022-07-29T10:21:00;22.40;89.80
43043;DHT22;28667;50.758;6.096;2022-07-29T10:23:28;22.40;90.30
43043;DHT22;28667;50.758;6.096;2022-07-29T10:25:55;22.40;89.80
43043;DHT22;28667;50.758;6.096;2022-07-29T10:28:21;22.40;89.80
43043;DHT22;28667;50.758;6.096;2022-07-29T10:30:50;22.60;89.10
43043;DHT22;28667;50.758;6.096;2022-07-29T10:43:51;22.40;88.40
43043;DHT22;28667;50.758;6.096;2022-07-29T10:46:17;22.30;87.60
43043;DHT22;28667;50.758;6.096;2022-07-29T10:49:16;22.20;87.10
43043;DHT22;28667;50.758;6.096;2022-07-29T10:54:44;22.10;85.80
43043;DHT22;28667;50.758;6.096;2022-07-29T10:57:18;22.20;86.70
43043;DHT22;28667;50.758;6.096;2022-07-29T10:59:51;22.20;85.90
43043;DHT22;28667;50.758;6.096;2022-07-29T11:05:00;22.20;86.70
43043;DHT22;28667;50.758;6.096;2022-07-29T11:07:27;22.20;87.80
43043;DHT22;28667;50.758;6.096;2022-07-29T11:15:08;22.40;88.50
43043;DHT22;28667;50.758;6.096;2022-07-29T11:23:30;22.80;87.00
43043;DHT22;28667;50.758;6.096;2022-07-29T11:26:18;22.80;87.00
43043;DHT22;28667;50.758;6.096;2022-07-29T11:28:54;22.80;87.00
43043;DHT22;28667;50.758;6.096;2022-07-29T11:31:35;22.90;87.30
43043;DHT22;28667;50.758;6.096;2022-07-29T11:45:18;23.10;87.40
43043;DHT22;28667;50.758;6.096;2022-07-29T11:47:49;23.10;87.30
43043;DHT22;28667;50.758;6.096;2022-07-29T11:50:36;23.10;87.70
43043;DHT22;28667;50.758;6.096;2022-07-29T11:53:10;23.20;88.30
43043;DHT22;28667;50.758;6.096;2022-07-29T11:55:39;23.20;89.50
43043;DHT22;28667;50.758;6.096;2022-07-29T11:58:07;23.30;88.60
43043;DHT22;28667;50.758;6.096;2022-07-29T12:00:40;23.20;88.90
43043;DHT22;28667;50.758;6.096;2022-07-29T12:03:08;23.20;88.20
43043;DHT22;28667;50.758;6.096;2022-07-29T12:05:44;23.20;87.80
43043;DHT22;28667;50.758;6.096;2022-07-29T12:08:14;23.20;87.20
43043;DHT22;28667;50.758;6.096;2022-07-29T12:10:41;23.30;87.70
43043;DHT22;28667;50.758;6.096;2022-07-29T12:13:08;23.30;87.40
43043;DHT22;28667;50.758;6.096;2022-07-29T12:15:34;23.30;86.90
43043;DHT22;28667;50.758;6.096;2022-07-29T12:18:14;23.30;88.20
43043;DHT22;28667;50.758;6.096;2022-07-29T12:20:41;23.30;87.90
43043;DHT22;28667;50.758;6.096;2022-07-29T12:23:08;23.30;87.80
43043;DHT22;28667;50.758;6.096;2022-07-29T12:25:35;23.40;87.20
43043;DHT22;28667;50.758;6.096;2022-07-29T12:28:12;23.50;87.40
43043;DHT22;28667;50.758;6.096;2022-07-29T12:30:43;23.50;86.60
43043;DHT22;28667;50.758;6.096;2022-07-29T12:33:19;23.90;85.90
43043;DHT22;28667;50.758;6.096;2022-07-29T12:35:51;23.80;85.50
43043;DHT22;28667;50.758;6.096;2022-07-29T12:38:18;23.80;85.00
43043;DHT22;28667;50.758;6.096;2022-07-29T12:40:46;23.80;84.20
43043;DHT22;28667;50.758;6.096;2022-07-29T12:43:17;23.80;85.00
43043;DHT22;28667;50.758;6.096;2022-07-29T12:45:46;23.90;86.00
43043;DHT22;28667;50.758;6.096;2022-07-29T12:48:14;24.00;84.90
43043;DHT22;28667;50.758;6.096;2022-07-29T12:50:58;24.00;84.00
43043;DHT22;28667;50.758;6.096;2022-07-29T12:53:25;24.00;83.10
43043;DHT22;28667;50.758;6.096;2022-07-29T12:55:53;23.90;83.70
43043;DHT22;28667;50.758;6.096;2022-07-29T12:58:38;23.90;84.00
43043;DHT22;28667;50.758;6.096;2022-07-29T13:01:10;24.10;83.20
43043;DHT22;28667;50.758;6.096;2022-07-29T13:03:53;24.10;83.30
43043;DHT22;28667;50.758;6.096;2022-07-29T13:06:41;24.20;83.00
43043;DHT22;28667;50.758;6.096;2022-07-29T13:09:09;24.30;82.70
43043;DHT22;28667;50.758;6.096;2022-07-29T13:11:49;24.40;82.10
43043;DHT22;28667;50.758;6.096;2022-07-29T13:14:38;24.40;82.90
43043;DHT22;28667;50.758;6.096;2022-07-29T13:17:13;24.50;84.00
43043;DHT22;28667;50.758;6.096;2022-07-29T13:22:10;24.60;82.80
43043;DHT22;28667;50.758;6.096;2022-07-29T13:27:20;24.60;84.10
43043;DHT22;28667;50.758;6.096;2022-07-29T13:29:47;24.60;82.90
43043;DHT22;28667;50.758;6.096;2022-07-29T13:32:14;24.50;83.40
43043;DHT22;28667;50.758;6.096;2022-07-29T13:34:40;24.70;82.70
43043;DHT22;28667;50.758;6.096;2022-07-29T13:37:06;25.00;80.70
43043;DHT22;28667;50.758;6.096;2022-07-29T13:39:32;25.30;80.10
43043;DHT22;28667;50.758;6.096;2022-07-29T13:41:59;25.30;80.50
43043;DHT22;28667;50.758;6.096;2022-07-29T13:44:25;25.20;80.50
43043;DHT22;28667;50.758;6.096;2022-07-29T13:46:51;25.40;79.90
43043;DHT22;28667;50.758;6.096;2022-07-29T13:49:17;25.40;79.20
43043;DHT22;28667;50.758;6.096;2022-07-29T13:51:43;25.40;80.10
43043;DHT22;28667;50.758;6.096;2022-07-29T13:54:09;25.30;78.80
43043;DHT22;28667;50.758;6.096;2022-07-29T13:56:35;25.40;79.10
43043;DHT22;28667;50.758;6.096;2022-07-29T13:59:01;25.40;78.20
43043;DHT22;28667;50.758;6.096;2022-07-29T14:01:27;25.40;78.30
43043;DHT22;28667;50.758;6.096;2022-07-29T14:03:55;25.40;77.80
43043;DHT22;28667;50.758;6.096;2022-07-29T14:06:22;25.40;77.80
43043;DHT22;28667;50.758;6.096;2022-07-29T14:08:49;25.40;78.20
43043;DHT22;28667;50.758;6.096;2022-07-29T14:11:14;25.60;77.20
43043;DHT22;28667;50.758;6.096;2022-07-29T14:13:41;25.50;76.70
43043;DHT22;28667;50.758;6.096;2022-07-29T14:16:07;25.60;76.40
43043;DHT22;28667;50.758;6.096;2022-07-29T14:18:33;25.70;76.40
43043;DHT22;28667;50.758;6.096;2022-07-29T14:20:59;25.50;74.60
43043;DHT22;28667;50.758;6.096;2022-07-29T14:23:25;25.70;74.80
43043;DHT22;28667;50.758;6.096;2022-07-29T14:25:51;25.80;74.40
43043;DHT22;28667;50.758;6.096;2022-07-29T14:28:17;25.90;75.10
43043;DHT22;28667;50.758;6.096;2022-07-29T14:30:43;25.80;74.50
43043;DHT22;28667;50.758;6.096;2022-07-29T14:33:10;25.70;75.40
43043;DHT22;28667;50.758;6.096;2022-07-29T14:35:36;25.70;76.20
43043;DHT22;28667;50.758;6.096;2022-07-29T14:38:03;25.60;75.80
43043;DHT22;28667;50.758;6.096;2022-07-29T14:40:29;25.50;76.10
43043;DHT22;28667;50.758;6.096;2022-07-29T14:42:55;25.60;76.60
43043;DHT22;28667;50.758;6.096;2022-07-29T14:45:21;25.50;76.70
43043;DHT22;28667;50.758;6.096;2022-07-29T14:47:48;25.50;77.40
43043;DHT22;28667;50.758;6.096;2022-07-29T14:50:16;25.40;77.60
43043;DHT22;28667;50.758;6.096;2022-07-29T14:52:42;25.30;77.50
43043;DHT22;28667;50.758;6.096;2022-07-29T14:55:08;25.30;76.90
43043;DHT22;28667;50.758;6.096;2022-07-29T14:57:34;25.30;76.90
43043;DHT22;28667;50.758;6.096;2022-07-29T15:00:02;25.30;75.40
43043;DHT22;28667;50.758;6.096;2022-07-29T15:02:28;25.40;76.50
43043;DHT22;28667;50.758;6.096;2022-07-29T15:04:55;25.50;76.00
43043;DHT22;28667;50.758;6.096;2022-07-29T15:07:21;25.60;76.10
43043;DHT22;28667;50.758;6.096;2022-07-29T15:09:47;25.80;76.70
43043;DHT22;28667;50.758;6.096;2022-07-29T15:12:13;26.20;75.50
43043;DHT22;28667;50.758;6.096;2022-07-29T15:14:40;26.60;75.00
43043;DHT22;28667;50.758;6.096;2022-07-29T15:17:06;26.70;74.20
43043;DHT22;28667;50.758;6.096;2022-07-29T15:19:32;26.80;73.80
43043;DHT22;28667;50.758;6.096;2022-07-29T15:21:58;27.10;73.10
43043;DHT22;28667;50.758;6.096;2022-07-29T15:24:25;27.20;73.30
43043;DHT22;28667;50.758;6.096;2022-07-29T15:26:51;27.00;73.60
43043;DHT22;28667;50.758;6.096;2022-07-29T15:29:17;26.80;74.40
43043;DHT22;28667;50.758;6.096;2022-07-29T15:31:43;26.60;75.10
43043;DHT22;28667;50.758;6.096;2022-07-29T15:34:10;26.60;74.80
43043;DHT22;28667;50.758;6.096;2022-07-29T15:36:36;26.70;75.20
43043;DHT22;28667;50.758;6.096;2022-07-29T15:39:02;26.90;74.30
43043;DHT22;28667;50.758;6.096;2022-07-29T15:41:28;26.90;73.90
43043;DHT22;28667;50.758;6.096;2022-07-29T15:43:54;26.80;74.70
43043;DHT22;28667;50.758;6.096;2022-07-29T15:46:20;26.70;74.40
43043;DHT22;28667;50.758;6.096;2022-07-29T15:49:07;26.70;75.50
43043;DHT22;28667;50.758;6.096;2022-07-29T15:51:33;26.60;76.10
43043;DHT22;28667;50.758;6.096;2022-07-29T15:54:03;26.70;76.00
43043;DHT22;28667;50.758;6.096;2022-07-29T15:56:30;26.60;75.00
43043;DHT22;28667;50.758;6.096;2022-07-29T15:58:57;26.40;75.50
43043;DHT22;28667;50.758;6.096;2022-07-29T16:01:24;26.20;75.80
43043;DHT22;28667;50.758;6.096;2022-07-29T16:03:50;26.00;77.10
43043;DHT22;28667;50.758;6.096;2022-07-29T16:06:16;25.70;76.50
43043;DHT22;28667;50.758;6.096;2022-07-29T16:08:43;25.60;77.10
43043;DHT22;28667;50.758;6.096;2022-07-29T16:11:09;25.60;77.20
43043;DHT22;28667;50.758;6.096;2022-07-29T16:13:35;25.60;77.30
43043;DHT22;28667;50.758;6.096;2022-07-29T16:16:01;25.80;77.20
43043;DHT22;28667;50.758;6.096;2022-07-29T16:18:28;26.00;76.40
43043;DHT22;28667;50.758;6.096;2022-07-29T16:20:54;26.20;75.30
43043;DHT22;28667;50.758;6.096;2022-07-29T16:23:20;26.10;75.40
43043;DHT22;28667;50.758;6.096;2022-07-29T16:25:46;25.90;75.90
43043;DHT22;28667;50.758;6.096;2022-07-29T16:28:12;26.00;76.20
43043;DHT22;28667;50.758;6.096;2022-07-29T16:30:38;25.70;76.60
43043;DHT22;28667;50.758;6.096;2022-07-29T16:33:04;25.50;76.90
43043;DHT22;28667;50.758;6.096;2022-07-29T16:35:30;25.40;77.40
43043;DHT22;28667;50.758;6.096;2022-07-29T16:37:56;25.50;77.60
43043;DHT22;28667;50.758;6.096;2022-07-29T16:40:23;25.60;77.50
43043;DHT22;28667;50.758;6.096;2022-07-29T16:42:49;25.70;77.60